createdAt,value
2022-10-06T00:02:21.153Z,15.70
2022-10-06T00:07:23.984Z,15.80
2022-10-06T00:12:26.780Z,15.60
2022-10-06T00:17:30.869Z,15.70
2022-10-06T00:22:36.866Z,16.10
2022-10-06T00:27:41.807Z,16.00
2022-10-06T00:32:51.798Z,16.00
2022-10-06T00:37:55.151Z,16.00
2022-10-06T00:42:59.392Z,16.00
2022-10-06T00:48:06.459Z,16.20
2022-10-06T00:53:09.438Z,16.30
2022-10-06T00:58:13.165Z,16.30
2022-10-06T01:03:21.498Z,16.10
2022-10-06T01:08:25.966Z,16.00
2022-10-06T01:13:30.152Z,15.60
2022-10-06T01:18:35.935Z,15.10
2022-10-06T01:23:41.260Z,14.80
2022-10-06T01:28:44.051Z,14.40
2022-10-06T01:33:51.414Z,14.00
2022-10-06T01:38:55.486Z,13.70
2022-10-06T01:43:58.232Z,13.60
2022-10-06T01:49:00.976Z,13.50
2022-10-06T01:54:05.197Z,13.50
2022-10-06T01:59:07.937Z,13.50
2022-10-06T02:04:10.761Z,13.40
2022-10-06T02:09:14.901Z,13.20
2022-10-06T02:14:18.050Z,13.10
2022-10-06T02:19:20.790Z,13.10
2022-10-06T02:24:25.066Z,13.10
2022-10-06T02:29:27.795Z,13.00
2022-10-06T02:34:30.531Z,13.10
2022-10-06T02:39:34.564Z,12.90
2022-10-06T02:44:37.294Z,12.90
2022-10-06T02:49:40.013Z,13.30
2022-10-06T02:54:44.346Z,13.50
2022-10-06T02:59:47.086Z,13.30
2022-10-06T03:04:49.841Z,13.10
2022-10-06T03:09:53.948Z,13.20
2022-10-06T03:14:56.650Z,13.10
2022-10-06T03:19:59.439Z,13.00
2022-10-06T03:25:03.948Z,12.80
2022-10-06T03:30:07.867Z,12.90
2022-10-06T03:35:10.918Z,13.20
2022-10-06T03:40:15.218Z,13.00
2022-10-06T03:45:17.968Z,12.90
2022-10-06T03:50:20.757Z,12.90
2022-10-06T03:55:24.931Z,12.80
2022-10-06T04:00:27.909Z,12.60
2022-10-06T04:05:30.632Z,12.50
2022-10-06T04:10:35.635Z,12.60
2022-10-06T04:15:38.371Z,12.50
2022-10-06T04:20:42.141Z,12.40
2022-10-06T04:25:46.205Z,12.50
2022-10-06T04:30:56.733Z,12.50
2022-10-06T04:35:59.850Z,12.70
2022-10-06T04:41:08.539Z,13.20
2022-10-06T04:46:37.532Z,13.40
2022-10-06T04:51:34.386Z,13.70
2022-10-06T04:56:38.419Z,13.90
2022-10-06T05:01:41.154Z,14.10
2022-10-06T05:06:44.171Z,14.10
2022-10-06T05:11:48.358Z,14.10
2022-10-06T05:16:51.480Z,14.20
2022-10-06T05:21:54.249Z,14.30
2022-10-06T05:27:02.133Z,14.80
2022-10-06T05:32:05.767Z,15.10
2022-10-06T05:37:08.558Z,15.30
2022-10-06T05:42:12.611Z,15.30
2022-10-06T05:47:15.352Z,15.30
2022-10-06T05:52:18.082Z,15.40
2022-10-06T05:57:22.129Z,15.80
2022-10-06T06:02:24.891Z,16.10
2022-10-06T06:07:27.726Z,16.60
2022-10-06T06:12:31.846Z,17.00
2022-10-06T06:17:34.737Z,17.30
2022-10-06T06:22:37.854Z,17.40
2022-10-06T06:27:42.076Z,17.30
2022-10-06T06:32:44.887Z,17.00
2022-10-06T06:37:48.819Z,16.70
2022-10-06T06:42:53.935Z,15.90
2022-10-06T06:47:56.919Z,15.20
2022-10-06T06:53:02.480Z,14.60
2022-10-06T06:58:06.623Z,14.30
2022-10-06T07:03:14.172Z,13.90
2022-10-06T07:08:21.029Z,13.70
2022-10-06T07:13:25.866Z,13.70
2022-10-06T07:18:46.239Z,13.70
2022-10-06T07:24:08.879Z,13.60
2022-10-06T07:29:12.995Z,13.60
2022-10-06T07:34:15.750Z,13.60
2022-10-06T07:39:18.520Z,13.50
2022-10-06T07:44:23.062Z,13.50
2022-10-06T07:49:27.199Z,13.60
2022-10-06T07:54:30.398Z,13.80
2022-10-06T07:59:35.599Z,14.00
2022-10-06T08:04:38.439Z,14.20
2022-10-06T08:09:41.188Z,14.50
2022-10-06T08:14:45.274Z,14.70
2022-10-06T08:19:48.800Z,14.80
2022-10-06T08:25:05.366Z,14.80
2022-10-06T08:30:12.409Z,14.90
2022-10-06T08:35:15.181Z,15.30
2022-10-06T08:40:17.932Z,15.70
2022-10-06T08:45:25.294Z,16.10
2022-10-06T08:50:30.258Z,16.30
2022-10-06T08:55:39.582Z,16.40
2022-10-06T09:00:43.803Z,16.60
2022-10-06T09:05:48.207Z,16.80
2022-10-06T09:11:04.580Z,16.90
2022-10-06T09:16:11.588Z,17.10
2022-10-06T09:21:18.482Z,17.40
2022-10-06T09:26:23.564Z,17.70
2022-10-06T09:31:29.423Z,18.20
2022-10-06T09:36:32.573Z,18.50
2022-10-06T09:41:40.692Z,18.60
2022-10-06T09:46:44.734Z,19.00
2022-10-06T09:52:01.903Z,20.50
2022-10-06T09:57:11.466Z,20.30
2022-10-06T10:02:36.848Z,20.80
2022-10-06T10:07:39.843Z,23.40
2022-10-06T10:12:50.519Z,27.40
2022-10-06T10:17:56.941Z,31.60
2022-10-06T10:23:02.349Z,29.40
2022-10-06T10:28:17.984Z,30.60
2022-10-06T10:33:31.087Z,32.10
2022-10-06T10:38:40.861Z,27.20
2022-10-06T10:43:51.066Z,28.00
2022-10-06T10:49:01.393Z,28.20
2022-10-06T10:54:10.200Z,28.20
2022-10-06T10:59:18.883Z,31.90
2022-10-06T11:04:22.978Z,27.90
2022-10-06T11:09:32.128Z,33.20
2022-10-06T11:14:57.398Z,32.40
2022-10-06T11:20:10.345Z,27.80
2022-10-06T11:25:22.565Z,27.50
2022-10-06T11:30:26.526Z,24.10
2022-10-06T11:35:36.013Z,22.50
2022-10-06T11:40:55.529Z,21.20
2022-10-06T11:46:06.541Z,20.70
2022-10-06T11:51:37.713Z,20.60
2022-10-06T11:56:40.951Z,20.50
2022-10-06T12:01:56.062Z,20.90
2022-10-06T12:07:02.091Z,20.60
2022-10-06T12:12:43.978Z,24.90
2022-10-06T12:17:55.040Z,25.30
2022-10-06T12:23:05.508Z,24.90
2022-10-06T12:28:17.960Z,27.90
2022-10-06T12:33:35.135Z,32.10
2022-10-06T12:38:44.395Z,37.80
2022-10-06T12:44:21.857Z,36.80
2022-10-06T12:49:48.811Z,36.90
2022-10-06T12:55:07.245Z,37.60
2022-10-06T13:00:31.170Z,37.20
2022-10-06T13:05:35.879Z,38.00
2022-10-06T13:10:40.032Z,37.90
2022-10-06T13:15:44.484Z,36.70
2022-10-06T13:20:49.123Z,34.10
2022-10-06T13:25:55.621Z,36.10
2022-10-06T13:36:10.400Z,35.80
2022-10-06T13:41:21.851Z,35.40
2022-10-06T13:46:26.941Z,35.10
2022-10-06T13:51:31.603Z,35.50
2022-10-06T13:56:39.406Z,33.10
2022-10-06T14:01:42.552Z,29.70
2022-10-06T14:06:49.646Z,30.50
2022-10-06T14:12:01.605Z,31.20
2022-10-06T14:17:04.793Z,32.70
2022-10-06T14:22:29.753Z,32.20
2022-10-06T14:27:34.210Z,31.80
2022-10-06T14:32:40.070Z,31.80
2022-10-06T14:37:42.774Z,32.00
2022-10-06T14:47:49.507Z,31.70
2022-10-06T14:52:52.236Z,31.80
2022-10-06T14:57:56.710Z,32.00
2022-10-06T15:02:59.562Z,31.30
2022-10-06T15:08:11.764Z,30.30
2022-10-06T15:13:15.827Z,30.20
2022-10-06T15:18:19.107Z,30.20
2022-10-06T15:23:21.891Z,30.10
2022-10-06T15:28:43.737Z,29.00
2022-10-06T15:33:49.798Z,27.60
2022-10-06T15:38:55.634Z,26.50
2022-10-06T15:43:59.860Z,24.60
2022-10-06T15:49:04.555Z,23.20
2022-10-06T15:54:07.346Z,22.20
2022-10-06T15:59:11.698Z,21.90
2022-10-06T16:04:23.108Z,21.40
2022-10-06T16:09:26.936Z,20.60
2022-10-06T16:14:31.363Z,19.70
2022-10-06T16:19:36.638Z,19.00
2022-10-06T16:24:39.502Z,18.60
2022-10-06T16:29:43.584Z,18.10
2022-10-06T16:34:50.268Z,17.70
2022-10-06T16:39:53.068Z,17.30
2022-10-06T16:44:57.146Z,16.90
2022-10-06T16:49:59.888Z,16.40
2022-10-06T16:55:02.913Z,16.00
2022-10-06T17:00:07.918Z,16.00
2022-10-06T17:05:10.623Z,15.80
2022-10-06T17:10:20.542Z,15.40
2022-10-06T17:15:26.179Z,15.10
2022-10-06T17:20:30.852Z,14.90
2022-10-06T17:25:33.796Z,14.70
2022-10-06T17:30:37.838Z,14.50
2022-10-06T17:35:41.590Z,14.20
2022-10-06T17:40:45.032Z,13.80
2022-10-06T17:45:49.396Z,13.90
2022-10-06T17:50:59.551Z,13.90
2022-10-06T17:56:07.414Z,13.50
2022-10-06T18:01:17.583Z,13.30
2022-10-06T18:06:20.844Z,13.50
2022-10-06T18:11:41.585Z,13.20
2022-10-06T18:16:49.835Z,13.50
2022-10-06T18:21:56.664Z,13.20
2022-10-06T18:27:01.377Z,13.00
2022-10-06T18:37:29.926Z,13.00
2022-10-06T18:42:32.671Z,12.70
2022-10-06T18:47:54.233Z,12.80
2022-10-06T18:52:57.229Z,12.60
2022-10-06T18:58:00.596Z,12.40
2022-10-06T19:03:08.015Z,12.30
2022-10-06T19:08:11.867Z,12.20
2022-10-06T19:13:14.663Z,12.10
2022-10-06T19:18:20.282Z,11.90
2022-10-06T19:23:23.090Z,11.80
2022-10-06T19:28:28.483Z,11.70
2022-10-06T19:33:33.635Z,11.50
2022-10-06T19:38:38.651Z,11.30
2022-10-06T19:43:41.531Z,11.60
2022-10-06T19:48:52.729Z,11.70
2022-10-06T19:53:58.706Z,11.60
2022-10-06T19:59:02.148Z,11.40
2022-10-06T20:04:06.618Z,11.20
2022-10-06T20:09:10.626Z,11.00
2022-10-06T20:14:20.759Z,10.90
2022-10-06T20:19:26.122Z,10.70
2022-10-06T20:24:31.114Z,10.70
2022-10-06T20:29:36.569Z,10.80
2022-10-06T20:34:41.802Z,10.80
2022-10-06T20:40:02.167Z,10.60
2022-10-06T20:45:05.683Z,10.40
2022-10-06T20:50:10.991Z,10.30
2022-10-06T20:55:14.543Z,10.20
2022-10-06T21:00:25.570Z,10.20
2022-10-06T21:05:33.119Z,10.30
2022-10-06T21:10:36.105Z,10.20
2022-10-06T21:15:45.592Z,10.20
2022-10-06T21:21:00.610Z,10.00
2022-10-06T21:26:03.723Z,9.90
2022-10-06T21:31:08.703Z,9.90
2022-10-06T21:36:15.441Z,9.80
2022-10-06T21:41:30.447Z,9.60
2022-10-06T21:46:35.568Z,9.50
2022-10-06T21:51:40.719Z,9.40
2022-10-06T21:56:43.855Z,9.40
2022-10-06T22:01:49.783Z,9.30
2022-10-06T22:06:54.100Z,9.20
2022-10-06T22:11:56.970Z,9.10
2022-10-06T22:16:59.815Z,9.10
2022-10-06T22:22:04.140Z,8.90
2022-10-06T22:27:07.002Z,8.90
2022-10-06T22:32:10.131Z,8.90
2022-10-06T22:37:14.354Z,8.90
2022-10-06T22:42:17.209Z,8.90
2022-10-06T22:47:20.247Z,8.90
2022-10-06T22:52:24.865Z,8.90
2022-10-06T22:57:31.540Z,8.90
2022-10-06T23:02:34.354Z,8.90
2022-10-06T23:07:38.558Z,8.80
2022-10-06T23:12:41.468Z,8.60
2022-10-06T23:17:44.919Z,8.50
2022-10-06T23:22:49.303Z,8.30
2022-10-06T23:27:52.127Z,8.20
2022-10-06T23:32:54.954Z,8.40
2022-10-06T23:37:59.161Z,8.50
2022-10-06T23:43:02.061Z,8.30
2022-10-06T23:48:05.036Z,8.20
2022-10-06T23:53:12.156Z,8.10
2022-10-06T23:58:15.545Z,8.10
